sensor_id;sensor_type;location;lat;lon;timestamp;pressure;altitude;pressure_sealevel;temperature;humidity
53900;BME280;40509;32.858;-116.858;2023-02-23T00:01:59;97728.84;;;20.41;38.76
53900;BME280;40509;32.858;-116.858;2023-02-23T00:04:35;97736.84;;;20.58;38.55
53900;BME280;40509;32.858;-116.858;2023-02-23T00:07:03;97745.34;;;20.51;38.57
53900;BME280;40509;32.858;-116.858;2023-02-23T00:09:32;97750.28;;;20.54;38.39
53900;BME280;40509;32.858;-116.858;2023-02-23T00:12:05;97745.53;;;20.40;38.47
53900;BME280;40509;32.858;-116.858;2023-02-23T00:14:36;97751.94;;;20.55;38.21
53900;BME280;40509;32.858;-116.858;2023-02-23T00:17:04;97756.13;;;20.66;38.03
53900;BME280;40509;32.858;-116.858;2023-02-23T00:19:39;97754.84;;;20.52;37.90
53900;BME280;40509;32.858;-116.858;2023-02-23T00:22:08;97747.72;;;20.63;38.02
53900;BME280;40509;32.858;-116.858;2023-02-23T00:24:36;97753.28;;;20.60;37.95
53900;BME280;40509;32.858;-116.858;2023-02-23T00:27:04;97749.59;;;20.52;37.94
53900;BME280;40509;32.858;-116.858;2023-02-23T00:29:33;97766.47;;;20.68;37.65
53900;BME280;40509;32.858;-116.858;2023-02-23T00:32:06;97769.94;;;20.86;37.66
53900;BME280;40509;32.858;-116.858;2023-02-23T00:34:34;97767.41;;;20.95;37.56
53900;BME280;40509;32.858;-116.858;2023-02-23T00:37:03;97788.00;;;20.71;37.83
53900;BME280;40509;32.858;-116.858;2023-02-23T00:39:31;97803.19;;;20.68;37.83
53900;BME280;40509;32.858;-116.858;2023-02-23T00:41:59;97815.59;;;20.66;37.77
53900;BME280;40509;32.858;-116.858;2023-02-23T00:44:28;97796.00;;;20.70;37.45
53900;BME280;40509;32.858;-116.858;2023-02-23T00:46:56;97781.72;;;20.82;37.42
53900;BME280;40509;32.858;-116.858;2023-02-23T00:49:23;97776.97;;;20.68;37.71
53900;BME280;40509;32.858;-116.858;2023-02-23T00:51:51;97776.59;;;20.81;37.72
53900;BME280;40509;32.858;-116.858;2023-02-23T00:54:20;97783.31;;;20.65;37.86
53900;BME280;40509;32.858;-116.858;2023-02-23T00:56:48;97777.22;;;20.75;37.76
53900;BME280;40509;32.858;-116.858;2023-02-23T00:59:16;97784.13;;;20.76;37.75
53900;BME280;40509;32.858;-116.858;2023-02-23T01:01:44;97774.66;;;21.01;37.63
53900;BME280;40509;32.858;-116.858;2023-02-23T01:04:12;97777.25;;;20.65;37.46
53900;BME280;40509;32.858;-116.858;2023-02-23T01:06:40;97789.66;;;20.27;38.62
53900;BME280;40509;32.858;-116.858;2023-02-23T01:09:14;97786.97;;;21.00;37.69
53900;BME280;40509;32.858;-116.858;2023-02-23T01:11:49;97789.13;;;21.05;37.55
53900;BME280;40509;32.858;-116.858;2023-02-23T01:14:16;97785.84;;;20.85;37.78
53900;BME280;40509;32.858;-116.858;2023-02-23T01:16:43;97785.38;;;20.89;37.51
53900;BME280;40509;32.858;-116.858;2023-02-23T01:19:11;97789.50;;;20.92;37.74
53900;BME280;40509;32.858;-116.858;2023-02-23T01:21:40;97780.44;;;20.86;37.80
53900;BME280;40509;32.858;-116.858;2023-02-23T01:24:09;97787.84;;;20.91;37.66
53900;BME280;40509;32.858;-116.858;2023-02-23T01:26:39;97786.50;;;20.87;37.98
53900;BME280;40509;32.858;-116.858;2023-02-23T01:29:13;97784.13;;;21.38;36.91
53900;BME280;40509;32.858;-116.858;2023-02-23T01:31:43;97786.34;;;20.88;37.68
53900;BME280;40509;32.858;-116.858;2023-02-23T01:34:12;97794.59;;;20.94;37.72
53900;BME280;40509;32.858;-116.858;2023-02-23T01:36:41;97792.91;;;21.29;37.33
53900;BME280;40509;32.858;-116.858;2023-02-23T01:39:15;97791.44;;;21.26;37.45
53900;BME280;40509;32.858;-116.858;2023-02-23T01:41:43;97794.22;;;21.51;37.33
53900;BME280;40509;32.858;-116.858;2023-02-23T01:46:42;97809.63;;;20.55;38.51
53900;BME280;40509;32.858;-116.858;2023-02-23T01:49:22;97804.69;;;20.25;39.03
53900;BME280;40509;32.858;-116.858;2023-02-23T01:54:37;97809.97;;;20.70;39.10
53900;BME280;40509;32.858;-116.858;2023-02-23T01:57:06;97808.31;;;21.23;38.30
53900;BME280;40509;32.858;-116.858;2023-02-23T01:59:41;97801.41;;;21.22;38.49
53900;BME280;40509;32.858;-116.858;2023-02-23T02:02:10;97808.69;;;21.29;38.46
53900;BME280;40509;32.858;-116.858;2023-02-23T02:04:41;97817.06;;;21.32;38.38
53900;BME280;40509;32.858;-116.858;2023-02-23T02:07:23;97822.13;;;21.52;38.15
53900;BME280;40509;32.858;-116.858;2023-02-23T02:09:54;97819.94;;;21.47;38.29
53900;BME280;40509;32.858;-116.858;2023-02-23T02:15:11;97824.06;;;21.23;38.81
53900;BME280;40509;32.858;-116.858;2023-02-23T02:31:44;97833.34;;;21.36;38.56
53900;BME280;40509;32.858;-116.858;2023-02-23T02:37:25;97846.03;;;21.41;38.48
53900;BME280;40509;32.858;-116.858;2023-02-23T02:43:06;97839.22;;;21.74;37.87
53900;BME280;40509;32.858;-116.858;2023-02-23T02:51:24;97846.22;;;21.47;38.58
53900;BME280;40509;32.858;-116.858;2023-02-23T02:53:57;97839.59;;;21.53;38.53
53900;BME280;40509;32.858;-116.858;2023-02-23T02:56:37;97849.84;;;21.46;38.59
53900;BME280;40509;32.858;-116.858;2023-02-23T02:59:11;97845.81;;;21.34;38.70
53900;BME280;40509;32.858;-116.858;2023-02-23T03:01:58;97851.72;;;21.54;38.49
53900;BME280;40509;32.858;-116.858;2023-02-23T03:04:44;97856.44;;;21.32;38.69
53900;BME280;40509;32.858;-116.858;2023-02-23T03:11:05;97869.28;;;21.53;38.42
53900;BME280;40509;32.858;-116.858;2023-02-23T03:20:26;97866.34;;;21.56;38.36
53900;BME280;40509;32.858;-116.858;2023-02-23T03:29:53;97879.47;;;21.38;38.86
53900;BME280;40509;32.858;-116.858;2023-02-23T03:32:49;97883.94;;;21.82;38.08
53900;BME280;40509;32.858;-116.858;2023-02-23T03:39:03;97867.03;;;21.85;37.96
53900;BME280;40509;32.858;-116.858;2023-02-23T03:41:52;97857.22;;;22.48;36.75
53900;BME280;40509;32.858;-116.858;2023-02-23T03:44:43;97859.25;;;21.75;38.02
53900;BME280;40509;32.858;-116.858;2023-02-23T03:47:33;97875.81;;;21.94;38.02
53900;BME280;40509;32.858;-116.858;2023-02-23T03:50:36;97880.25;;;22.28;37.19
53900;BME280;40509;32.858;-116.858;2023-02-23T03:53:28;97883.13;;;22.34;36.98
53900;BME280;40509;32.858;-116.858;2023-02-23T03:56:18;97883.06;;;22.00;37.64
53900;BME280;40509;32.858;-116.858;2023-02-23T03:59:05;97869.78;;;21.75;37.97
53900;BME280;40509;32.858;-116.858;2023-02-23T04:01:53;97876.03;;;21.56;38.58
53900;BME280;40509;32.858;-116.858;2023-02-23T04:04:42;97874.78;;;22.13;37.52
53900;BME280;40509;32.858;-116.858;2023-02-23T04:07:30;97883.03;;;22.52;36.98
53900;BME280;40509;32.858;-116.858;2023-02-23T04:10:16;97875.53;;;22.74;36.61
53900;BME280;40509;32.858;-116.858;2023-02-23T04:13:07;97886.50;;;22.27;37.11
53900;BME280;40509;32.858;-116.858;2023-02-23T04:18:18;97895.13;;;21.84;38.39
53900;BME280;40509;32.858;-116.858;2023-02-23T04:20:47;97883.50;;;21.69;39.34
53900;BME280;40509;32.858;-116.858;2023-02-23T04:23:15;97896.75;;;22.38;37.96
53900;BME280;40509;32.858;-116.858;2023-02-23T04:25:43;97896.19;;;22.52;37.47
53900;BME280;40509;32.858;-116.858;2023-02-23T04:28:30;97895.22;;;22.62;37.12
53900;BME280;40509;32.858;-116.858;2023-02-23T04:30:58;97892.13;;;22.32;37.77
53900;BME280;40509;32.858;-116.858;2023-02-23T04:33:26;97873.06;;;22.03;38.49
53900;BME280;40509;32.858;-116.858;2023-02-23T04:35:53;97882.34;;;21.89;38.70
53900;BME280;40509;32.858;-116.858;2023-02-23T04:38:21;97897.91;;;21.83;38.74
53900;BME280;40509;32.858;-116.858;2023-02-23T04:40:50;97895.88;;;22.03;38.55
53900;BME280;40509;32.858;-116.858;2023-02-23T04:43:17;97898.63;;;22.46;37.86
53900;BME280;40509;32.858;-116.858;2023-02-23T04:45:45;97899.00;;;22.59;37.53
53900;BME280;40509;32.858;-116.858;2023-02-23T04:48:12;97904.44;;;22.66;37.69
53900;BME280;40509;32.858;-116.858;2023-02-23T04:50:40;97905.22;;;22.23;38.60
53900;BME280;40509;32.858;-116.858;2023-02-23T04:53:07;97907.75;;;22.07;39.09
53900;BME280;40509;32.858;-116.858;2023-02-23T04:55:34;97915.22;;;21.94;39.44
53900;BME280;40509;32.858;-116.858;2023-02-23T04:58:02;97922.75;;;21.88;39.79
53900;BME280;40509;32.858;-116.858;2023-02-23T05:00:29;97920.28;;;21.87;39.72
53900;BME280;40509;32.858;-116.858;2023-02-23T05:02:57;97927.06;;;22.50;38.21
53900;BME280;40509;32.858;-116.858;2023-02-23T05:05:24;97935.91;;;22.76;37.88
53900;BME280;40509;32.858;-116.858;2023-02-23T05:07:51;97933.63;;;22.81;37.49
53900;BME280;40509;32.858;-116.858;2023-02-23T05:10:20;97933.28;;;22.41;38.58
53900;BME280;40509;32.858;-116.858;2023-02-23T05:12:48;97931.91;;;22.11;38.91
53900;BME280;40509;32.858;-116.858;2023-02-23T05:15:16;97933.63;;;21.76;40.02
53900;BME280;40509;32.858;-116.858;2023-02-23T05:17:43;97935.06;;;21.52;40.24
53900;BME280;40509;32.858;-116.858;2023-02-23T05:20:12;97938.09;;;21.75;39.78
53900;BME280;40509;32.858;-116.858;2023-02-23T05:22:40;97944.72;;;22.32;38.71
53900;BME280;40509;32.858;-116.858;2023-02-23T05:25:08;97946.22;;;22.69;38.00
53900;BME280;40509;32.858;-116.858;2023-02-23T05:27:36;97948.28;;;22.92;37.52
53900;BME280;40509;32.858;-116.858;2023-02-23T05:30:05;97947.75;;;22.37;38.28
53900;BME280;40509;32.858;-116.858;2023-02-23T05:32:33;97947.31;;;21.79;39.38
53900;BME280;40509;32.858;-116.858;2023-02-23T05:35:00;97956.50;;;21.47;39.74
53900;BME280;40509;32.858;-116.858;2023-02-23T05:37:28;97958.97;;;22.03;39.25
53900;BME280;40509;32.858;-116.858;2023-02-23T05:39:55;97960.09;;;22.45;38.22
53900;BME280;40509;32.858;-116.858;2023-02-23T05:42:22;97964.09;;;22.57;38.03
53900;BME280;40509;32.858;-116.858;2023-02-23T05:44:49;97958.56;;;22.68;37.57
53900;BME280;40509;32.858;-116.858;2023-02-23T05:47:17;97960.66;;;22.30;38.24
53900;BME280;40509;32.858;-116.858;2023-02-23T05:49:44;97953.84;;;21.75;39.19
53900;BME280;40509;32.858;-116.858;2023-02-23T05:52:12;97957.50;;;21.46;39.80
53900;BME280;40509;32.858;-116.858;2023-02-23T05:54:39;97952.44;;;21.63;39.95
53900;BME280;40509;32.858;-116.858;2023-02-23T05:57:07;97945.47;;;22.24;38.50
53900;BME280;40509;32.858;-116.858;2023-02-23T05:59:34;97944.00;;;22.48;37.74
53900;BME280;40509;32.858;-116.858;2023-02-23T06:02:01;97936.97;;;22.56;37.77
53900;BME280;40509;32.858;-116.858;2023-02-23T06:04:31;97940.69;;;22.46;37.81
53900;BME280;40509;32.858;-116.858;2023-02-23T06:06:59;97940.63;;;21.85;39.12
53900;BME280;40509;32.858;-116.858;2023-02-23T06:09:26;97927.78;;;21.46;39.63
53900;BME280;40509;32.858;-116.858;2023-02-23T06:11:53;97931.44;;;21.89;39.29
53900;BME280;40509;32.858;-116.858;2023-02-23T06:14:20;97926.94;;;22.34;38.23
53900;BME280;40509;32.858;-116.858;2023-02-23T06:16:48;97928.09;;;22.58;37.56
53900;BME280;40509;32.858;-116.858;2023-02-23T06:19:15;97922.22;;;22.72;37.18
53900;BME280;40509;32.858;-116.858;2023-02-23T06:21:42;97922.00;;;22.57;37.25
53900;BME280;40509;32.858;-116.858;2023-02-23T06:24:10;97934.16;;;21.79;38.49
53900;BME280;40509;32.858;-116.858;2023-02-23T06:26:38;97935.31;;;21.41;39.40
53900;BME280;40509;32.858;-116.858;2023-02-23T06:29:05;97945.69;;;21.60;39.50
53900;BME280;40509;32.858;-116.858;2023-02-23T06:31:32;97926.16;;;22.33;37.85
53900;BME280;40509;32.858;-116.858;2023-02-23T06:34:04;97935.31;;;22.55;37.52
53900;BME280;40509;32.858;-116.858;2023-02-23T06:36:32;97932.69;;;22.55;37.27
53900;BME280;40509;32.858;-116.858;2023-02-23T06:38:59;97927.88;;;22.85;36.91
53900;BME280;40509;32.858;-116.858;2023-02-23T06:41:28;97935.47;;;22.01;38.05
53900;BME280;40509;32.858;-116.858;2023-02-23T06:43:56;97923.97;;;21.58;38.88
53900;BME280;40509;32.858;-116.858;2023-02-23T06:46:24;97920.66;;;21.74;38.78
53900;BME280;40509;32.858;-116.858;2023-02-23T06:48:57;97922.66;;;22.51;37.46
53900;BME280;40509;32.858;-116.858;2023-02-23T06:51:25;97923.88;;;22.73;37.03
53900;BME280;40509;32.858;-116.858;2023-02-23T06:53:53;97925.91;;;22.87;36.69
53900;BME280;40509;32.858;-116.858;2023-02-23T06:56:20;97920.81;;;22.51;37.11
53900;BME280;40509;32.858;-116.858;2023-02-23T06:58:49;97926.59;;;21.76;38.04
53900;BME280;40509;32.858;-116.858;2023-02-23T07:01:16;97933.66;;;21.39;38.89
53900;BME280;40509;32.858;-116.858;2023-02-23T07:03:44;97926.06;;;21.18;39.40
53900;BME280;40509;32.858;-116.858;2023-02-23T07:06:12;97935.25;;;21.04;39.71
53900;BME280;40509;32.858;-116.858;2023-02-23T07:08:39;97938.63;;;20.97;39.49
53900;BME280;40509;32.858;-116.858;2023-02-23T07:11:12;97936.75;;;20.89;39.87
53900;BME280;40509;32.858;-116.858;2023-02-23T07:13:39;97943.13;;;20.86;40.10
53900;BME280;40509;32.858;-116.858;2023-02-23T07:16:07;97954.31;;;20.79;40.28
53900;BME280;40509;32.858;-116.858;2023-02-23T07:18:35;97953.13;;;20.73;40.09
53900;BME280;40509;32.858;-116.858;2023-02-23T07:21:02;97951.75;;;20.69;40.00
53900;BME280;40509;32.858;-116.858;2023-02-23T07:23:29;97947.88;;;20.63;40.41
53900;BME280;40509;32.858;-116.858;2023-02-23T07:25:57;97949.28;;;20.58;40.25
53900;BME280;40509;32.858;-116.858;2023-02-23T07:28:26;97976.75;;;20.53;40.61
53900;BME280;40509;32.858;-116.858;2023-02-23T07:30:55;97968.38;;;20.50;40.57
53900;BME280;40509;32.858;-116.858;2023-02-23T07:33:23;97967.13;;;20.44;40.94
53900;BME280;40509;32.858;-116.858;2023-02-23T07:35:51;97964.94;;;20.39;40.74
53900;BME280;40509;32.858;-116.858;2023-02-23T07:38:19;97966.34;;;20.34;41.02
53900;BME280;40509;32.858;-116.858;2023-02-23T07:40:49;97952.16;;;20.27;41.03
53900;BME280;40509;32.858;-116.858;2023-02-23T07:43:16;97960.28;;;20.24;41.01
53900;BME280;40509;32.858;-116.858;2023-02-23T07:45:43;97958.25;;;20.17;40.92
53900;BME280;40509;32.858;-116.858;2023-02-23T07:48:11;97954.94;;;20.15;41.04
53900;BME280;40509;32.858;-116.858;2023-02-23T07:50:39;97941.69;;;20.17;41.03
53900;BME280;40509;32.858;-116.858;2023-02-23T07:53:06;97942.78;;;20.14;40.48
53900;BME280;40509;32.858;-116.858;2023-02-23T07:55:34;97943.91;;;20.12;40.70
53900;BME280;40509;32.858;-116.858;2023-02-23T07:58:04;97956.47;;;20.08;40.94
53900;BME280;40509;32.858;-116.858;2023-02-23T08:00:33;97964.34;;;20.08;40.71
53900;BME280;40509;32.858;-116.858;2023-02-23T08:03:00;97964.63;;;20.05;40.77
53900;BME280;40509;32.858;-116.858;2023-02-23T08:05:27;97967.66;;;20.00;40.93
53900;BME280;40509;32.858;-116.858;2023-02-23T08:07:57;97972.06;;;20.00;40.94
53900;BME280;40509;32.858;-116.858;2023-02-23T08:10:24;97973.72;;;20.01;40.59
53900;BME280;40509;32.858;-116.858;2023-02-23T08:12:52;97979.50;;;19.95;40.78
53900;BME280;40509;32.858;-116.858;2023-02-23T08:15:19;97977.59;;;19.97;40.74
53900;BME280;40509;32.858;-116.858;2023-02-23T08:17:46;97977.72;;;19.85;41.29
53900;BME280;40509;32.858;-116.858;2023-02-23T08:20:13;97988.75;;;19.79;40.79
53900;BME280;40509;32.858;-116.858;2023-02-23T08:22:41;97985.56;;;19.76;41.05
53900;BME280;40509;32.858;-116.858;2023-02-23T08:25:09;97979.50;;;19.75;41.10
53900;BME280;40509;32.858;-116.858;2023-02-23T08:27:37;97991.34;;;19.69;41.29
53900;BME280;40509;32.858;-116.858;2023-02-23T08:30:04;97987.22;;;19.67;41.56
53900;BME280;40509;32.858;-116.858;2023-02-23T08:32:33;97992.47;;;19.67;41.24
53900;BME280;40509;32.858;-116.858;2023-02-23T08:35:03;97987.09;;;19.68;41.07
53900;BME280;40509;32.858;-116.858;2023-02-23T08:37:31;97974.94;;;19.67;41.28
53900;BME280;40509;32.858;-116.858;2023-02-23T08:39:58;97987.22;;;19.67;41.19
53900;BME280;40509;32.858;-116.858;2023-02-23T08:42:26;97990.94;;;19.64;41.10
53900;BME280;40509;32.858;-116.858;2023-02-23T08:44:54;97982.81;;;19.58;41.62
53900;BME280;40509;32.858;-116.858;2023-02-23T08:47:22;97987.06;;;19.59;41.08
53900;BME280;40509;32.858;-116.858;2023-02-23T08:49:52;97992.28;;;19.59;41.07
53900;BME280;40509;32.858;-116.858;2023-02-23T08:52:22;97989.00;;;19.57;41.27
53900;BME280;40509;32.858;-116.858;2023-02-23T08:54:51;97990.25;;;19.52;41.24
53900;BME280;40509;32.858;-116.858;2023-02-23T08:57:18;97990.63;;;19.48;41.70
53900;BME280;40509;32.858;-116.858;2023-02-23T08:59:45;97989.16;;;19.45;41.57
53900;BME280;40509;32.858;-116.858;2023-02-23T09:02:13;98004.66;;;19.37;41.56
53900;BME280;40509;32.858;-116.858;2023-02-23T09:04:41;98001.25;;;19.36;41.49
53900;BME280;40509;32.858;-116.858;2023-02-23T09:07:14;97997.38;;;19.31;41.63
53900;BME280;40509;32.858;-116.858;2023-02-23T09:09:41;97996.81;;;19.27;41.66
53900;BME280;40509;32.858;-116.858;2023-02-23T09:12:08;97992.28;;;19.29;41.81
53900;BME280;40509;32.858;-116.858;2023-02-23T09:14:35;97988.28;;;19.25;41.54
53900;BME280;40509;32.858;-116.858;2023-02-23T09:17:03;97992.41;;;19.28;41.64
53900;BME280;40509;32.858;-116.858;2023-02-23T09:19:30;97983.88;;;19.26;41.45
53900;BME280;40509;32.858;-116.858;2023-02-23T09:21:59;97984.13;;;19.23;41.50
53900;BME280;40509;32.858;-116.858;2023-02-23T09:24:26;97989.09;;;19.26;41.35
53900;BME280;40509;32.858;-116.858;2023-02-23T09:26:54;97982.75;;;19.18;41.73
53900;BME280;40509;32.858;-116.858;2023-02-23T09:29:21;97984.41;;;19.19;41.52
53900;BME280;40509;32.858;-116.858;2023-02-23T09:31:48;97978.47;;;19.17;41.92
53900;BME280;40509;32.858;-116.858;2023-02-23T09:34:18;97977.38;;;19.10;41.76
53900;BME280;40509;32.858;-116.858;2023-02-23T09:36:46;97971.88;;;19.13;41.80
53900;BME280;40509;32.858;-116.858;2023-02-23T09:39:13;97972.94;;;19.11;41.99
53900;BME280;40509;32.858;-116.858;2023-02-23T09:45:17;97963.16;;;19.03;41.62
53900;BME280;40509;32.858;-116.858;2023-02-23T09:47:55;97969.63;;;18.99;42.09
53900;BME280;40509;32.858;-116.858;2023-02-23T09:50:29;97956.81;;;18.96;42.14
53900;BME280;40509;32.858;-116.858;2023-02-23T09:53:04;97958.75;;;18.94;41.94
53900;BME280;40509;32.858;-116.858;2023-02-23T09:55:33;97957.09;;;18.93;41.82
53900;BME280;40509;32.858;-116.858;2023-02-23T09:58:07;97949.63;;;18.88;42.01
53900;BME280;40509;32.858;-116.858;2023-02-23T10:00:42;97948.78;;;18.87;41.96
53900;BME280;40509;32.858;-116.858;2023-02-23T10:05:54;97942.47;;;18.90;41.79
53900;BME280;40509;32.858;-116.858;2023-02-23T10:11:51;97945.22;;;18.89;42.09
53900;BME280;40509;32.858;-116.858;2023-02-23T10:19:54;97945.28;;;18.77;41.96
53900;BME280;40509;32.858;-116.858;2023-02-23T10:22:23;97956.88;;;18.75;41.94
53900;BME280;40509;32.858;-116.858;2023-02-23T10:24:57;97965.38;;;18.77;42.45
53900;BME280;40509;32.858;-116.858;2023-02-23T10:27:39;97951.22;;;18.79;42.39
53900;BME280;40509;32.858;-116.858;2023-02-23T10:30:17;97959.47;;;18.75;42.44
53900;BME280;40509;32.858;-116.858;2023-02-23T10:33:15;97953.81;;;18.69;42.49
53900;BME280;40509;32.858;-116.858;2023-02-23T10:35:46;97973.22;;;18.67;42.75
53900;BME280;40509;32.858;-116.858;2023-02-23T10:38:17;97984.19;;;18.61;42.63
53900;BME280;40509;32.858;-116.858;2023-02-23T10:40:55;97970.94;;;18.52;42.81
53900;BME280;40509;32.858;-116.858;2023-02-23T10:43:23;97979.84;;;18.50;42.82
53900;BME280;40509;32.858;-116.858;2023-02-23T10:45:51;97975.88;;;18.56;42.67
53900;BME280;40509;32.858;-116.858;2023-02-23T10:48:25;97977.78;;;18.44;42.59
53900;BME280;40509;32.858;-116.858;2023-02-23T10:50:55;97978.50;;;18.56;42.69
53900;BME280;40509;32.858;-116.858;2023-02-23T10:53:33;97977.81;;;18.53;42.68
53900;BME280;40509;32.858;-116.858;2023-02-23T10:56:09;97972.72;;;18.52;42.87
53900;BME280;40509;32.858;-116.858;2023-02-23T10:58:59;97970.94;;;18.52;42.75
53900;BME280;40509;32.858;-116.858;2023-02-23T11:04:20;97957.41;;;18.47;42.64
53900;BME280;40509;32.858;-116.858;2023-02-23T11:06:48;97950.97;;;18.51;42.80
53900;BME280;40509;32.858;-116.858;2023-02-23T11:14:25;97953.00;;;18.38;42.51
53900;BME280;40509;32.858;-116.858;2023-02-23T11:16:57;97953.69;;;18.40;42.87
53900;BME280;40509;32.858;-116.858;2023-02-23T11:19:35;97953.81;;;18.39;42.75
53900;BME280;40509;32.858;-116.858;2023-02-23T11:22:06;97952.69;;;18.31;42.93
53900;BME280;40509;32.858;-116.858;2023-02-23T11:24:40;97957.84;;;18.22;43.12
53900;BME280;40509;32.858;-116.858;2023-02-23T11:27:21;97945.34;;;18.25;42.77
53900;BME280;40509;32.858;-116.858;2023-02-23T11:29:51;97943.91;;;18.11;43.21
53900;BME280;40509;32.858;-116.858;2023-02-23T11:32:32;97944.88;;;18.10;43.11
53900;BME280;40509;32.858;-116.858;2023-02-23T11:35:30;97940.44;;;18.11;42.90
53900;BME280;40509;32.858;-116.858;2023-02-23T11:37:58;97937.03;;;18.10;42.97
53900;BME280;40509;32.858;-116.858;2023-02-23T11:40:31;97933.59;;;18.10;42.82
53900;BME280;40509;32.858;-116.858;2023-02-23T11:43:14;97933.38;;;18.23;42.90
53900;BME280;40509;32.858;-116.858;2023-02-23T11:45:47;97933.50;;;18.21;42.62
53900;BME280;40509;32.858;-116.858;2023-02-23T11:48:30;97936.00;;;18.23;42.91
53900;BME280;40509;32.858;-116.858;2023-02-23T11:50:59;97939.00;;;18.18;42.94
53900;BME280;40509;32.858;-116.858;2023-02-23T11:53:35;97937.59;;;18.14;43.05
53900;BME280;40509;32.858;-116.858;2023-02-23T11:56:04;97939.38;;;18.13;42.81
53900;BME280;40509;32.858;-116.858;2023-02-23T11:58:42;97938.16;;;18.17;43.25
53900;BME280;40509;32.858;-116.858;2023-02-23T12:01:13;97936.63;;;18.15;42.75
53900;BME280;40509;32.858;-116.858;2023-02-23T12:03:47;97938.56;;;18.13;42.77
53900;BME280;40509;32.858;-116.858;2023-02-23T12:06:36;97938.81;;;18.10;42.75
53900;BME280;40509;32.858;-116.858;2023-02-23T12:09:37;97933.41;;;18.01;43.23
53900;BME280;40509;32.858;-116.858;2023-02-23T12:12:08;97942.81;;;17.93;43.03
53900;BME280;40509;32.858;-116.858;2023-02-23T12:14:42;97945.53;;;17.91;43.03
53900;BME280;40509;32.858;-116.858;2023-02-23T12:20:14;97948.78;;;17.83;43.17
53900;BME280;40509;32.858;-116.858;2023-02-23T12:23:07;97954.84;;;17.84;43.12
53900;BME280;40509;32.858;-116.858;2023-02-23T12:25:44;97949.50;;;17.85;43.19
53900;BME280;40509;32.858;-116.858;2023-02-23T12:33:41;97943.06;;;17.90;42.98
53900;BME280;40509;32.858;-116.858;2023-02-23T12:37:04;97935.50;;;17.86;43.27
53900;BME280;40509;32.858;-116.858;2023-02-23T12:39:39;97929.56;;;17.84;43.40
53900;BME280;40509;32.858;-116.858;2023-02-23T12:45:03;97921.53;;;17.76;43.09
53900;BME280;40509;32.858;-116.858;2023-02-23T12:48:02;97916.31;;;17.76;43.09
53900;BME280;40509;32.858;-116.858;2023-02-23T12:50:50;97910.13;;;17.77;42.92
53900;BME280;40509;32.858;-116.858;2023-02-23T12:55:59;97907.53;;;17.77;43.26
53900;BME280;40509;32.858;-116.858;2023-02-23T13:04:13;97915.84;;;17.71;42.80
53900;BME280;40509;32.858;-116.858;2023-02-23T13:06:59;97926.56;;;17.68;43.21
53900;BME280;40509;32.858;-116.858;2023-02-23T13:12:33;97931.13;;;17.55;42.46
53900;BME280;40509;32.858;-116.858;2023-02-23T13:18:23;97938.94;;;17.55;42.05
53900;BME280;40509;32.858;-116.858;2023-02-23T13:24:00;97940.09;;;17.62;42.15
53900;BME280;40509;32.858;-116.858;2023-02-23T13:26:41;97944.03;;;17.56;42.17
53900;BME280;40509;32.858;-116.858;2023-02-23T13:29:47;97940.47;;;17.57;42.17
53900;BME280;40509;32.858;-116.858;2023-02-23T13:32:20;97939.75;;;17.55;42.47
53900;BME280;40509;32.858;-116.858;2023-02-23T13:35:04;97944.75;;;17.58;42.52
53900;BME280;40509;32.858;-116.858;2023-02-23T13:37:40;97946.91;;;17.53;42.15
53900;BME280;40509;32.858;-116.858;2023-02-23T13:48:44;97966.50;;;17.47;42.22
53900;BME280;40509;32.858;-116.858;2023-02-23T13:51:51;97967.31;;;17.48;42.56
53900;BME280;40509;32.858;-116.858;2023-02-23T13:56:54;97980.25;;;17.49;42.85
53900;BME280;40509;32.858;-116.858;2023-02-23T13:59:24;97978.47;;;17.50;42.69
53900;BME280;40509;32.858;-116.858;2023-02-23T14:01:55;97973.41;;;17.37;42.22
53900;BME280;40509;32.858;-116.858;2023-02-23T14:04:26;97976.47;;;17.42;42.25
53900;BME280;40509;32.858;-116.858;2023-02-23T14:07:31;97982.41;;;17.44;42.44
53900;BME280;40509;32.858;-116.858;2023-02-23T14:12:40;97980.97;;;17.40;42.60
53900;BME280;40509;32.858;-116.858;2023-02-23T14:18:02;97997.97;;;17.34;41.88
53900;BME280;40509;32.858;-116.858;2023-02-23T14:26:36;98010.19;;;17.34;42.34
53900;BME280;40509;32.858;-116.858;2023-02-23T14:34:58;98012.22;;;17.30;42.09
53900;BME280;40509;32.858;-116.858;2023-02-23T14:37:41;98002.75;;;17.18;42.40
53900;BME280;40509;32.858;-116.858;2023-02-23T14:40:21;98009.63;;;17.19;41.83
53900;BME280;40509;32.858;-116.858;2023-02-23T14:42:51;98010.44;;;17.19;41.53
53900;BME280;40509;32.858;-116.858;2023-02-23T14:45:22;98016.38;;;17.22;41.60
53900;BME280;40509;32.858;-116.858;2023-02-23T14:48:14;98015.41;;;17.23;42.26
53900;BME280;40509;32.858;-116.858;2023-02-23T14:50:43;98017.19;;;17.22;43.59
53900;BME280;40509;32.858;-116.858;2023-02-23T14:53:20;98024.44;;;17.30;43.21
53900;BME280;40509;32.858;-116.858;2023-02-23T14:55:47;98028.22;;;17.26;42.76
53900;BME280;40509;32.858;-116.858;2023-02-23T14:58:24;98029.19;;;17.25;44.97
53900;BME280;40509;32.858;-116.858;2023-02-23T15:00:52;98024.91;;;17.24;45.15
53900;BME280;40509;32.858;-116.858;2023-02-23T15:03:19;98027.63;;;17.22;44.01
53900;BME280;40509;32.858;-116.858;2023-02-23T15:05:55;98026.22;;;17.18;44.04
53900;BME280;40509;32.858;-116.858;2023-02-23T15:08:25;98024.34;;;17.20;43.95
53900;BME280;40509;32.858;-116.858;2023-02-23T15:13:36;98025.88;;;17.11;43.02
53900;BME280;40509;32.858;-116.858;2023-02-23T15:18:52;98040.72;;;17.11;42.64
53900;BME280;40509;32.858;-116.858;2023-02-23T15:21:22;98044.84;;;17.13;42.72